sensor_id;sensor_type;location;lat;lon;timestamp;P1;durP1;ratioP1;P2;durP2;ratioP2
44428;SDS011;30134;47.866;-4.222;2022-12-29T08:36:00;12.00;;;3.40;;
44428;SDS011;30134;47.866;-4.222;2022-12-29T08:38:28;10.45;;;3.63;;
44428;SDS011;30134;47.866;-4.222;2022-12-29T08:40:55;11.18;;;3.25;;
44428;SDS011;30134;47.866;-4.222;2022-12-29T08:43:22;10.82;;;3.30;;
44428;SDS011;30134;47.866;-4.222;2022-12-29T08:45:49;10.38;;;3.30;;
44428;SDS011;30134;47.866;-4.222;2022-12-29T08:48:15;10.70;;;3.67;;
44428;SDS011;30134;47.866;-4.222;2022-12-29T08:50:44;10.00;;;3.53;;
44428;SDS011;30134;47.866;-4.222;2022-12-29T08:53:14;12.38;;;3.75;;
44428;SDS011;30134;47.866;-4.222;2022-12-29T08:55:40;9.35;;;3.53;;
44428;SDS011;30134;47.866;-4.222;2022-12-29T08:58:06;12.02;;;3.58;;
44428;SDS011;30134;47.866;-4.222;2022-12-29T09:00:32;14.60;;;4.30;;
44428;SDS011;30134;47.866;-4.222;2022-12-29T09:02:58;10.15;;;3.67;;
44428;SDS011;30134;47.866;-4.222;2022-12-29T09:05:24;9.95;;;3.30;;
44428;SDS011;30134;47.866;-4.222;2022-12-29T09:07:50;9.40;;;3.38;;
44428;SDS011;30134;47.866;-4.222;2022-12-29T09:10:16;11.65;;;3.47;;
44428;SDS011;30134;47.866;-4.222;2022-12-29T09:12:42;9.63;;;3.58;;
44428;SDS011;30134;47.866;-4.222;2022-12-29T09:15:11;10.70;;;3.45;;
44428;SDS011;30134;47.866;-4.222;2022-12-29T09:17:37;11.88;;;3.35;;
44428;SDS011;30134;47.866;-4.222;2022-12-29T09:20:10;11.25;;;3.60;;
44428;SDS011;30134;47.866;-4.222;2022-12-29T09:22:40;10.70;;;3.85;;
44428;SDS011;30134;47.866;-4.222;2022-12-29T09:25:06;10.32;;;3.35;;
44428;SDS011;30134;47.866;-4.222;2022-12-29T09:27:34;11.32;;;3.53;;
44428;SDS011;30134;47.866;-4.222;2022-12-29T09:30:00;9.40;;;3.47;;
44428;SDS011;30134;47.866;-4.222;2022-12-29T09:32:32;10.33;;;3.33;;
44428;SDS011;30134;47.866;-4.222;2022-12-29T09:34:58;9.48;;;3.47;;
44428;SDS011;30134;47.866;-4.222;2022-12-29T09:37:24;8.80;;;3.50;;
44428;SDS011;30134;47.866;-4.222;2022-12-29T09:39:50;9.48;;;3.33;;
44428;SDS011;30134;47.866;-4.222;2022-12-29T09:45:21;9.18;;;3.38;;
44428;SDS011;30134;47.866;-4.222;2022-12-29T09:48:40;13.40;;;4.00;;
44428;SDS011;30134;47.866;-4.222;2022-12-29T09:51:11;9.55;;;3.25;;
44428;SDS011;30134;47.866;-4.222;2022-12-29T09:53:49;7.57;;;3.13;;
44428;SDS011;30134;47.866;-4.222;2022-12-29T09:56:23;9.77;;;3.30;;
44428;SDS011;30134;47.866;-4.222;2022-12-29T09:58:53;10.55;;;3.78;;
44428;SDS011;30134;47.866;-4.222;2022-12-29T10:01:36;9.50;;;3.65;;
44428;SDS011;30134;47.866;-4.222;2022-12-29T10:04:09;7.72;;;3.53;;
44428;SDS011;30134;47.866;-4.222;2022-12-29T10:06:44;10.63;;;3.70;;
44428;SDS011;30134;47.866;-4.222;2022-12-29T10:09:17;13.52;;;3.97;;
44428;SDS011;30134;47.866;-4.222;2022-12-29T10:14:58;9.57;;;3.60;;
44428;SDS011;30134;47.866;-4.222;2022-12-29T10:21:14;9.20;;;3.70;;
44428;SDS011;30134;47.866;-4.222;2022-12-29T10:23:52;12.77;;;3.65;;
44428;SDS011;30134;47.866;-4.222;2022-12-29T10:26:26;10.52;;;3.05;;
44428;SDS011;30134;47.866;-4.222;2022-12-29T10:28:57;9.23;;;3.47;;
44428;SDS011;30134;47.866;-4.222;2022-12-29T10:31:46;6.78;;;2.85;;
44428;SDS011;30134;47.866;-4.222;2022-12-29T10:34:19;9.73;;;3.03;;
44428;SDS011;30134;47.866;-4.222;2022-12-29T10:36:48;7.65;;;3.25;;
44428;SDS011;30134;47.866;-4.222;2022-12-29T10:39:41;8.70;;;3.50;;
44428;SDS011;30134;47.866;-4.222;2022-12-29T10:44:56;11.08;;;3.42;;
44428;SDS011;30134;47.866;-4.222;2022-12-29T10:47:38;8.48;;;2.83;;
44428;SDS011;30134;47.866;-4.222;2022-12-29T10:50:39;8.30;;;3.60;;
44428;SDS011;30134;47.866;-4.222;2022-12-29T11:26:54;19.45;;;4.45;;
44428;SDS011;30134;47.866;-4.222;2022-12-29T11:29:37;17.52;;;4.13;;
44428;SDS011;30134;47.866;-4.222;2022-12-29T11:32:12;12.10;;;4.30;;
44428;SDS011;30134;47.866;-4.222;2022-12-29T11:34:50;13.63;;;4.18;;
44428;SDS011;30134;47.866;-4.222;2022-12-29T11:37:16;12.98;;;3.63;;
44428;SDS011;30134;47.866;-4.222;2022-12-29T11:42:52;8.63;;;3.10;;
44428;SDS011;30134;47.866;-4.222;2022-12-29T11:45:26;7.10;;;2.70;;
44428;SDS011;30134;47.866;-4.222;2022-12-29T11:50:51;6.82;;;2.88;;
44428;SDS011;30134;47.866;-4.222;2022-12-29T11:53:21;9.23;;;3.15;;
44428;SDS011;30134;47.866;-4.222;2022-12-29T11:55:56;8.82;;;3.03;;
44428;SDS011;30134;47.866;-4.222;2022-12-29T11:58:30;10.50;;;3.35;;
44428;SDS011;30134;47.866;-4.222;2022-12-29T12:01:03;8.55;;;3.35;;
44428;SDS011;30134;47.866;-4.222;2022-12-29T12:04:03;9.52;;;2.85;;
44428;SDS011;30134;47.866;-4.222;2022-12-29T12:06:39;6.30;;;2.95;;
44428;SDS011;30134;47.866;-4.222;2022-12-29T12:09:58;6.25;;;2.63;;
44428;SDS011;30134;47.866;-4.222;2022-12-29T12:12:34;7.60;;;2.42;;
44428;SDS011;30134;47.866;-4.222;2022-12-29T12:15:17;6.05;;;2.47;;
44428;SDS011;30134;47.866;-4.222;2022-12-29T12:17:57;5.25;;;2.60;;
44428;SDS011;30134;47.866;-4.222;2022-12-29T12:20:46;4.35;;;2.25;;
44428;SDS011;30134;47.866;-4.222;2022-12-29T12:26:16;5.60;;;2.08;;
44428;SDS011;30134;47.866;-4.222;2022-12-29T12:29:08;5.72;;;2.42;;
44428;SDS011;30134;47.866;-4.222;2022-12-29T12:31:59;5.03;;;1.90;;
44428;SDS011;30134;47.866;-4.222;2022-12-29T12:48:42;5.72;;;2.20;;
44428;SDS011;30134;47.866;-4.222;2022-12-29T13:00:08;4.55;;;1.67;;
44428;SDS011;30134;47.866;-4.222;2022-12-29T13:08:48;6.03;;;1.95;;
44428;SDS011;30134;47.866;-4.222;2022-12-29T13:37:00;4.05;;;1.70;;
44428;SDS011;30134;47.866;-4.222;2022-12-29T13:39:36;2.67;;;1.52;;
44428;SDS011;30134;47.866;-4.222;2022-12-29T13:42:07;4.97;;;1.83;;
44428;SDS011;30134;47.866;-4.222;2022-12-29T13:44:35;4.57;;;1.63;;
44428;SDS011;30134;47.866;-4.222;2022-12-29T14:12:31;3.40;;;1.75;;
44428;SDS011;30134;47.866;-4.222;2022-12-29T14:15:19;2.85;;;1.35;;
44428;SDS011;30134;47.866;-4.222;2022-12-29T14:18:09;2.97;;;1.52;;
44428;SDS011;30134;47.866;-4.222;2022-12-29T14:20:57;4.65;;;1.70;;
44428;SDS011;30134;47.866;-4.222;2022-12-29T14:31:00;3.15;;;1.38;;
44428;SDS011;30134;47.866;-4.222;2022-12-29T14:33:29;3.38;;;1.60;;
44428;SDS011;30134;47.866;-4.222;2022-12-29T14:35:57;3.13;;;1.58;;
44428;SDS011;30134;47.866;-4.222;2022-12-29T14:39:36;2.90;;;1.65;;
